EICKBIAR

Guest
Details From EICK - Cork
To BIAR - Akureyri
Flight Number -
Tags Generated
Created
Modified
Stats Distance 879 nm / 1,628 km
Max Altitude 0 ft / 0 m
Waypoints 3
Social Downloads 1
Likes 0
Share VATSIM

Download

Looking for another format? Having issues loading an existing format? Contact us
Advertisement - Login to hide

Notes

Generated

Route

EICK HV BIAR

ID Type Via Altitude Latitude Longitude Leg Dist Tot Dist Heading (true) Name
O EICK APT - 0 ft / 0 m 51.84143˚ -8.49570˚ - 0 nm - -
HV NDB - 0 ft / 0 m 65.63556˚ -18.06778˚ 878 nm 878 nm 344° / 336° -
O BIAR APT - 0 ft / 0 m 65.64996˚ -18.07072˚ 0 nm 879 nm 355° / 355° -

Altitude Profile

Advertisement - Login to hide

Weather


0- 5 10 15 20 25 30 35+ Temperature / ° C

Clouds and Precipitation
Forecast for 2017-12-11 06:00 UTC. Updated an hour ago

Ground ~20,000 ft ~40,000 ft Winds

EICK

Details ICAO EICK (ORK)
Name Cork
Region Ireland
Timezone Europe/Dublin (UTC+0.0)
Stats Elevation 502 ft / 153 m (AMSL)
Location 51.842605° -8.489056°
Runways 2
Magnetic Variation 3.613° W

METAR

EICK 110200Z 34012KT CAVOK M02/M04 Q0987 NOSIG

Decode

TAF

TAF EICK 101700Z 1018/1118 02016KT 9999 BKN007 BECMG 1018/1020 FEW007 BKN040 PROB40 TEMPO 1018/1019 3000 -RASN BKN005 BECMG 1022/1101 01013KT BECMG 1103/1105 34012KT PROB40 TEMPO 1105/1108 34007KT 4000 BR SCT005 BECMG 1115/1118 33013KT

Decode

Departure Runways

ID Width Length Bearing (true) Bearing (mag) Surface Threshold Offset Overrun Length
07 148 ft / 45 m 4,281 ft / 1,305 m 62.55° 66.16° Concrete 0 ft / 0 m 0 ft / 0 m
17 148 ft / 45 m 6,992 ft / 2,131 m 159.93° 163.54° Asphalt 0 ft / 0 m 115 ft / 35 m
25 148 ft / 45 m 4,281 ft / 1,305 m 242.57° 246.18° Concrete 0 ft / 0 m 39 ft / 12 m
35 148 ft / 45 m 6,992 ft / 2,131 m 339.94° 343.55° Asphalt 0 ft / 0 m 0 ft / 0 m

BIAR

Details ICAO BIAR (AEY)
Name Akureyri
Region Iceland
Timezone Unknown (UTC+0.0)
Stats Elevation 5 ft / 2 m (AMSL)
Location 65.656574° -18.071975°
Runways 1
Magnetic Variation 12.297° W

METAR

BIAR 110200Z 15007KT 9999 OVC037 M05/M06 Q1008

Decode

TAF

TAF BIAR 110132Z 1103/1203 VRB02KT 9999 FEW025 BKN035 TXM02/1203Z TNM11/1111Z BECMG 1110/1113 CAVOK BECMG 1117/1120 17014KT

Decode

Destination Runways

ID Width Length Bearing (true) Bearing (mag) Surface Threshold Offset Overrun Length
01 148 ft / 45 m 7,855 ft / 2,394 m 355.54° 7.84° Asphalt 0 ft / 0 m 0 ft / 0 m
19 148 ft / 45 m 7,855 ft / 2,394 m 175.54° 187.84° Asphalt 0 ft / 0 m 0 ft / 0 m

Approach Navaids

Runway Type Ident Frequency Range Bearing (true) Bearing (mag) Slope Elevation
01 Localiser IEY 111.90 MHz 18 nm / 33 km 24.00° 36.30° - 200 ft / 61 m (AMSL)
01 Glidescope IEY 111.90 MHz 10 nm / 19 km 358.14° 10.44° 5.00° 44 ft / 13 m (AMSL)